createdAt,value
2018-11-04T00:00:52.708Z,1016.82
2018-11-04T00:01:52.509Z,1016.81
2018-11-04T00:02:52.483Z,1016.84
2018-11-04T00:03:52.476Z,1016.79
2018-11-04T00:04:52.434Z,1016.81
2018-11-04T00:05:52.414Z,1016.82
2018-11-04T00:06:52.431Z,1016.83
2018-11-04T00:07:52.438Z,1016.81
2018-11-04T00:08:52.334Z,1016.79
2018-11-04T00:09:52.362Z,1016.78
2018-11-04T00:10:52.280Z,1016.76
2018-11-04T00:11:52.254Z,1016.75
2018-11-04T00:13:52.206Z,1016.73
2018-11-04T00:14:52.195Z,1016.73
2018-11-04T00:15:52.151Z,1016.72
2018-11-04T00:16:52.130Z,1016.72
2018-11-04T00:17:52.101Z,1016.70
2018-11-04T00:18:52.078Z,1016.67
2018-11-04T00:19:52.059Z,1016.66
2018-11-04T00:20:52.028Z,1016.61
2018-11-04T00:21:52.003Z,1016.62
2018-11-04T00:22:51.980Z,1016.65
2018-11-04T00:23:51.958Z,1016.64
2018-11-04T00:24:51.921Z,1016.62
2018-11-04T00:25:51.909Z,1016.62
2018-11-04T00:26:51.936Z,1016.61
2018-11-04T00:27:51.845Z,1016.57
2018-11-04T00:28:52.004Z,1016.58
2018-11-04T00:29:51.878Z,1016.53
2018-11-04T00:30:51.773Z,1016.55
2018-11-04T00:31:51.776Z,1016.52
2018-11-04T00:32:51.717Z,1016.51
2018-11-04T00:33:51.707Z,1016.50
2018-11-04T00:34:51.676Z,1016.47
2018-11-04T00:35:51.639Z,1016.43
2018-11-04T00:36:51.618Z,1016.43
2018-11-04T00:37:51.596Z,1016.41
2018-11-04T00:38:51.610Z,1016.38
2018-11-04T00:39:51.537Z,1016.30
2018-11-04T00:40:51.514Z,1016.37
2018-11-04T00:41:51.493Z,1016.41
2018-11-04T00:42:51.461Z,1016.37
2018-11-04T00:43:51.449Z,1016.40
2018-11-04T00:44:51.405Z,1016.41
2018-11-04T00:45:51.381Z,1016.38
2018-11-04T00:46:51.357Z,1016.36
2018-11-04T00:47:51.343Z,1016.37
2018-11-04T00:48:51.306Z,1016.34
2018-11-04T00:49:51.293Z,1016.31
2018-11-04T00:50:51.252Z,1016.26
2018-11-04T00:51:51.227Z,1016.24
2018-11-04T00:52:51.213Z,1016.22
2018-11-04T00:53:51.181Z,1016.21
2018-11-04T00:54:51.165Z,1016.24
2018-11-04T00:55:51.125Z,1016.23
2018-11-04T00:56:51.111Z,1016.21
2018-11-04T00:57:51.084Z,1016.21
2018-11-04T00:58:51.049Z,1016.22
2018-11-04T00:59:51.042Z,1016.13
2018-11-04T01:00:51.006Z,1016.21
2018-11-04T01:01:50.969Z,1016.15
2018-11-04T01:02:50.946Z,1016.15
2018-11-04T01:03:50.919Z,1016.14
2018-11-04T01:04:50.907Z,1016.12
2018-11-04T01:05:50.866Z,1016.11
2018-11-04T01:06:50.844Z,1016.12
2018-11-04T01:07:50.953Z,1016.10
2018-11-04T01:08:50.789Z,1016.02
2018-11-04T01:09:50.766Z,1016.03
2018-11-04T01:10:50.743Z,1016.05
2018-11-04T01:11:50.721Z,1015.99
2018-11-04T01:12:50.685Z,1016.03
2018-11-04T01:13:50.665Z,1015.94
2018-11-04T01:14:50.636Z,1015.95
2018-11-04T01:15:50.610Z,1015.91
2018-11-04T01:16:50.582Z,1015.88
2018-11-04T01:17:50.570Z,1015.85
2018-11-04T01:18:50.533Z,1015.86
2018-11-04T01:19:50.515Z,1015.83
2018-11-04T01:20:50.484Z,1015.84
2018-11-04T01:21:50.456Z,1015.78
2018-11-04T01:22:50.434Z,1015.80
2018-11-04T01:23:50.402Z,1015.79
2018-11-04T01:24:50.379Z,1015.79
2018-11-04T01:25:50.351Z,1015.77
2018-11-04T01:26:50.324Z,1015.74
2018-11-04T01:27:50.302Z,1015.74
2018-11-04T01:28:50.275Z,1015.70
2018-11-04T01:29:50.260Z,1015.69
2018-11-04T01:30:50.272Z,1015.67
2018-11-04T01:31:50.206Z,1015.64
2018-11-04T01:32:50.171Z,1015.66
2018-11-04T01:33:50.150Z,1015.66
2018-11-04T01:34:50.123Z,1015.61
2018-11-04T01:35:50.096Z,1015.61
2018-11-04T01:36:50.072Z,1015.64
2018-11-04T01:37:50.044Z,1015.62
2018-11-04T01:38:50.023Z,1015.63
2018-11-04T01:39:49.992Z,1015.58
2018-11-04T01:40:49.967Z,1015.61
2018-11-04T01:41:49.940Z,1015.61
2018-11-04T01:42:49.915Z,1015.61
2018-11-04T01:43:49.950Z,1015.58
2018-11-04T01:44:49.860Z,1015.61
2018-11-04T01:45:49.841Z,1015.59
2018-11-04T01:46:49.823Z,1015.64
2018-11-04T01:47:49.787Z,1015.63
2018-11-04T01:48:49.765Z,1015.60
2018-11-04T01:49:49.739Z,1015.57
2018-11-04T01:50:49.710Z,1015.58
2018-11-04T01:51:49.685Z,1015.53
2018-11-04T01:52:49.668Z,1015.50
2018-11-04T01:53:49.630Z,1015.50
2018-11-04T01:54:49.604Z,1015.49
2018-11-04T01:55:49.581Z,1015.47
2018-11-04T01:56:49.551Z,1015.44
2018-11-04T01:57:49.531Z,1015.38
2018-11-04T01:58:49.500Z,1015.41
2018-11-04T01:59:49.483Z,1015.39
2018-11-04T02:00:49.451Z,1015.41
2018-11-04T02:01:49.424Z,1015.39
2018-11-04T02:02:49.399Z,1015.38
2018-11-04T02:03:49.380Z,1015.31
2018-11-04T02:04:49.345Z,1015.33
2018-11-04T02:05:49.329Z,1015.32
2018-11-04T02:06:49.295Z,1015.30
2018-11-04T02:07:49.273Z,1015.30
2018-11-04T02:08:49.380Z,1015.22
2018-11-04T02:09:49.221Z,1015.23
2018-11-04T02:10:49.191Z,1015.18
2018-11-04T02:11:49.313Z,1015.18
2018-11-04T02:12:49.138Z,1015.19
2018-11-04T02:13:49.114Z,1015.15
2018-11-04T02:14:49.140Z,1015.16
2018-11-04T02:15:49.061Z,1015.13
2018-11-04T02:16:49.040Z,1015.09
2018-11-04T02:17:49.009Z,1015.14
2018-11-04T02:18:48.983Z,1015.10
2018-11-04T02:19:48.961Z,1015.07
2018-11-04T02:20:48.934Z,1015.05
2018-11-04T02:21:48.909Z,1015.01
2018-11-04T02:22:48.929Z,1014.97
2018-11-04T02:23:48.858Z,1015.00
2018-11-04T02:24:48.854Z,1014.96
2018-11-04T02:25:48.853Z,1014.92
2018-11-04T02:26:48.780Z,1014.96
2018-11-04T02:27:48.756Z,1014.92
2018-11-04T02:28:48.779Z,1014.89
2018-11-04T02:29:48.699Z,1014.89
2018-11-04T02:30:48.674Z,1014.87
2018-11-04T02:31:48.648Z,1014.85
2018-11-04T02:32:48.629Z,1014.82
2018-11-04T02:33:48.603Z,1014.79
2018-11-04T02:34:48.571Z,1014.75
2018-11-04T02:35:48.543Z,1014.76
2018-11-04T02:36:48.518Z,1014.77
2018-11-04T02:37:48.492Z,1014.75
2018-11-04T02:38:48.466Z,1014.74
2018-11-04T02:39:48.449Z,1014.78
2018-11-04T02:40:48.413Z,1014.79
2018-11-04T02:41:48.389Z,1014.80
2018-11-04T02:42:48.362Z,1014.78
2018-11-04T02:43:48.339Z,1014.76
2018-11-04T02:44:48.315Z,1014.80
2018-11-04T02:45:48.349Z,1014.77
2018-11-04T02:46:48.382Z,1014.73
2018-11-04T02:47:48.241Z,1014.73
2018-11-04T02:48:48.205Z,1014.73
2018-11-04T02:49:48.181Z,1014.73
2018-11-04T02:50:48.265Z,1014.71
2018-11-04T02:51:48.126Z,1014.71
2018-11-04T02:52:48.106Z,1014.71
2018-11-04T02:53:48.137Z,1014.68
2018-11-04T02:54:48.049Z,1014.71
2018-11-04T02:55:48.038Z,1014.65
2018-11-04T02:56:47.995Z,1014.63
2018-11-04T02:57:47.982Z,1014.63
2018-11-04T02:58:47.946Z,1014.65
2018-11-04T02:59:47.925Z,1014.61
2018-11-04T03:00:47.895Z,1014.67
2018-11-04T03:01:48.017Z,1014.64
2018-11-04T03:02:47.838Z,1014.66
2018-11-04T03:03:47.816Z,1014.62
2018-11-04T03:04:47.821Z,1014.56
2018-11-04T03:05:47.766Z,1014.55
2018-11-04T03:06:47.736Z,1014.51
2018-11-04T03:07:47.720Z,1014.50
2018-11-04T03:08:47.684Z,1014.47
2018-11-04T03:09:47.660Z,1014.48
2018-11-04T03:10:47.631Z,1014.44
2018-11-04T03:11:47.608Z,1014.40
2018-11-04T03:12:47.579Z,1014.36
2018-11-04T03:13:47.559Z,1014.39
2018-11-04T03:14:47.528Z,1014.37
2018-11-04T03:15:47.499Z,1014.32
2018-11-04T03:16:47.473Z,1014.35
2018-11-04T03:17:47.450Z,1014.33
2018-11-04T03:18:47.425Z,1014.28
2018-11-04T03:19:47.405Z,1014.24
2018-11-04T03:20:47.372Z,1014.24
2018-11-04T03:21:47.350Z,1014.24
2018-11-04T03:22:47.318Z,1014.23
2018-11-04T03:23:47.301Z,1014.26
2018-11-04T03:24:47.392Z,1014.23
2018-11-04T03:25:47.241Z,1014.24
2018-11-04T03:26:47.227Z,1014.20
2018-11-04T03:27:47.191Z,1014.22
2018-11-04T03:28:47.165Z,1014.21
2018-11-04T03:29:47.137Z,1014.23
2018-11-04T03:30:47.111Z,1014.21
2018-11-04T03:31:47.084Z,1014.22
2018-11-04T03:32:47.059Z,1014.18
2018-11-04T03:33:47.033Z,1014.15
2018-11-04T03:34:47.013Z,1014.19
2018-11-04T03:35:46.978Z,1014.16
2018-11-04T03:36:46.953Z,1014.10
2018-11-04T03:37:46.928Z,1014.15
2018-11-04T03:38:46.911Z,1014.09
2018-11-04T03:39:46.876Z,1014.09
2018-11-04T03:40:46.853Z,1014.06
2018-11-04T03:41:46.822Z,1014.07
2018-11-04T03:42:46.798Z,1014.05
2018-11-04T03:43:46.770Z,1013.98
2018-11-04T03:44:46.745Z,1014.02
2018-11-04T03:45:46.722Z,1014.05
2018-11-04T03:46:46.692Z,1014.02
2018-11-04T03:47:46.665Z,1014.08
2018-11-04T03:48:46.641Z,1014.12
2018-11-04T03:49:46.612Z,1014.13
2018-11-04T03:50:46.595Z,1014.15
2018-11-04T03:51:46.708Z,1014.16
2018-11-04T03:52:46.545Z,1014.18
2018-11-04T03:53:46.511Z,1014.17
2018-11-04T03:54:46.482Z,1014.13
2018-11-04T03:55:46.456Z,1014.19
2018-11-04T03:56:46.431Z,1014.15
2018-11-04T03:57:46.405Z,1014.14
2018-11-04T03:58:46.380Z,1014.12
2018-11-04T03:59:46.352Z,1014.14
2018-11-04T04:00:46.341Z,1014.12
2018-11-04T04:01:46.301Z,1014.07
2018-11-04T04:02:46.289Z,1014.10
2018-11-04T04:03:46.253Z,1014.10
2018-11-04T04:04:46.220Z,1014.07
2018-11-04T04:05:46.253Z,1014.09
2018-11-04T04:06:46.171Z,1014.08
2018-11-04T04:07:46.152Z,1014.08
2018-11-04T04:08:46.115Z,1014.05
2018-11-04T04:09:46.093Z,1014.08
2018-11-04T04:10:46.069Z,1014.07
2018-11-04T04:11:46.036Z,1014.09
2018-11-04T04:12:46.018Z,1014.09
2018-11-04T04:13:45.985Z,1014.10
2018-11-04T04:14:45.960Z,1014.06
2018-11-04T04:15:45.937Z,1014.03
2018-11-04T04:16:45.913Z,1014.03
2018-11-04T04:17:45.882Z,1013.99
2018-11-04T04:18:45.858Z,1014.04
2018-11-04T04:19:45.830Z,1014.00
2018-11-04T04:20:45.802Z,1014.01
2018-11-04T04:21:45.777Z,1014.06
2018-11-04T04:22:45.750Z,1014.07
2018-11-04T04:23:45.725Z,1014.06
2018-11-04T04:24:45.772Z,1014.08
2018-11-04T04:25:45.678Z,1014.09
2018-11-04T04:26:45.646Z,1014.10
2018-11-04T04:27:45.667Z,1014.15
2018-11-04T04:28:45.594Z,1014.10
2018-11-04T04:29:45.571Z,1014.11
2018-11-04T04:30:45.602Z,1014.14
2018-11-04T04:31:45.518Z,1014.08
2018-11-04T04:32:45.491Z,1014.05
2018-11-04T04:33:45.464Z,1014.07
2018-11-04T04:34:45.439Z,1014.03
2018-11-04T04:35:45.411Z,1014.03
2018-11-04T04:36:45.388Z,1014.00
2018-11-04T04:37:45.366Z,1013.96
2018-11-04T04:38:45.332Z,1013.98
2018-11-04T04:39:45.311Z,1013.90
2018-11-04T04:40:45.289Z,1013.91
2018-11-04T04:41:45.257Z,1013.88
2018-11-04T04:42:45.229Z,1013.85
2018-11-04T04:43:45.203Z,1013.83
2018-11-04T04:44:45.181Z,1013.79
2018-11-04T04:45:45.152Z,1013.79
2018-11-04T04:46:45.122Z,1013.77
2018-11-04T04:47:45.100Z,1013.73
2018-11-04T04:48:45.072Z,1013.73
2018-11-04T04:49:45.048Z,1013.78
2018-11-04T04:50:45.022Z,1013.75
2018-11-04T04:51:45.001Z,1013.76
2018-11-04T04:52:44.973Z,1013.78
2018-11-04T04:53:44.949Z,1013.73
2018-11-04T04:54:44.914Z,1013.70
2018-11-04T04:55:44.889Z,1013.72
2018-11-04T04:56:44.862Z,1013.76
2018-11-04T04:57:44.837Z,1013.75
2018-11-04T04:58:44.813Z,1013.77
2018-11-04T04:59:44.787Z,1013.77
2018-11-04T05:00:44.765Z,1013.77
2018-11-04T05:01:44.733Z,1013.75
2018-11-04T05:02:44.707Z,1013.82
2018-11-04T05:03:44.812Z,1013.80
2018-11-04T05:04:44.655Z,1013.80
2018-11-04T05:05:44.627Z,1013.77
2018-11-04T05:06:44.772Z,1013.73
2018-11-04T05:07:44.575Z,1013.71
2018-11-04T05:08:44.548Z,1013.72
2018-11-04T05:09:44.666Z,1013.67
2018-11-04T05:10:44.496Z,1013.63
2018-11-04T05:11:44.468Z,1013.60
2018-11-04T05:12:44.503Z,1013.64
2018-11-04T05:13:44.418Z,1013.62
2018-11-04T05:14:44.393Z,1013.59
2018-11-04T05:15:44.363Z,1013.62
2018-11-04T05:16:44.339Z,1013.56
2018-11-04T05:17:44.317Z,1013.61
2018-11-04T05:18:44.284Z,1013.59
2018-11-04T05:19:44.258Z,1013.60
2018-11-04T05:20:44.235Z,1013.60
2018-11-04T05:21:44.207Z,1013.58
2018-11-04T05:22:44.182Z,1013.63
2018-11-04T05:23:44.155Z,1013.59
2018-11-04T05:24:44.129Z,1013.65
2018-11-04T05:25:44.105Z,1013.63
2018-11-04T05:26:44.079Z,1013.64
2018-11-04T05:27:44.049Z,1013.60
2018-11-04T05:28:44.027Z,1013.59
2018-11-04T05:29:44.000Z,1013.59
2018-11-04T05:30:44.003Z,1013.59
2018-11-04T05:31:43.947Z,1013.60
2018-11-04T05:32:43.923Z,1013.57
2018-11-04T05:33:43.897Z,1013.54
2018-11-04T05:34:43.876Z,1013.58
2018-11-04T05:35:43.843Z,1013.62
2018-11-04T05:36:43.817Z,1013.60
2018-11-04T05:37:43.792Z,1013.59
2018-11-04T05:38:43.769Z,1013.64
2018-11-04T05:39:43.741Z,1013.61
2018-11-04T05:40:43.714Z,1013.61
2018-11-04T05:41:43.686Z,1013.60
2018-11-04T05:42:43.670Z,1013.63
2018-11-04T05:43:43.632Z,1013.58
2018-11-04T05:44:43.618Z,1013.63
2018-11-04T05:45:43.749Z,1013.60
2018-11-04T05:46:43.557Z,1013.62
2018-11-04T05:47:43.551Z,1013.55
2018-11-04T05:48:43.510Z,1013.56
2018-11-04T05:49:43.478Z,1013.57
2018-11-04T05:50:43.451Z,1013.57
2018-11-04T05:51:43.427Z,1013.56
2018-11-04T05:52:43.405Z,1013.55
2018-11-04T05:53:43.371Z,1013.54
2018-11-04T05:54:43.347Z,1013.56
2018-11-04T05:55:43.326Z,1013.60
2018-11-04T05:56:43.295Z,1013.51
2018-11-04T05:57:43.272Z,1013.54
2018-11-04T05:58:43.242Z,1013.52
2018-11-04T05:59:43.220Z,1013.55
2018-11-04T06:00:43.194Z,1013.52
2018-11-04T06:01:43.166Z,1013.59
2018-11-04T06:02:43.143Z,1013.50
2018-11-04T06:03:43.112Z,1013.58
2018-11-04T06:04:43.230Z,1013.52
2018-11-04T06:05:43.061Z,1013.50
2018-11-04T06:06:43.035Z,1013.50
2018-11-04T06:07:43.051Z,1013.52
2018-11-04T06:08:42.984Z,1013.54
2018-11-04T06:09:42.957Z,1013.52
2018-11-04T06:10:42.981Z,1013.51
2018-11-04T06:11:42.905Z,1013.51
2018-11-04T06:12:42.881Z,1013.50
2018-11-04T06:13:42.855Z,1013.50
2018-11-04T06:14:42.827Z,1013.57
2018-11-04T06:15:42.804Z,1013.57
2018-11-04T06:16:42.780Z,1013.50
2018-11-04T06:17:42.750Z,1013.47
2018-11-04T06:18:42.723Z,1013.49
2018-11-04T06:19:42.701Z,1013.50
2018-11-04T06:20:42.673Z,1013.54
2018-11-04T06:21:42.649Z,1013.49
2018-11-04T06:22:42.620Z,1013.47
2018-11-04T06:23:42.597Z,1013.53
2018-11-04T06:24:42.571Z,1013.47
2018-11-04T06:25:42.545Z,1013.47
2018-11-04T06:26:42.515Z,1013.47
2018-11-04T06:27:42.496Z,1013.44
2018-11-04T06:28:42.466Z,1013.45
2018-11-04T06:29:42.441Z,1013.47
2018-11-04T06:30:42.412Z,1013.46
2018-11-04T06:31:42.388Z,1013.47
2018-11-04T06:32:42.363Z,1013.45
2018-11-04T06:33:42.340Z,1013.43
2018-11-04T06:34:42.434Z,1013.44
2018-11-04T06:35:42.286Z,1013.40
2018-11-04T06:36:42.260Z,1013.40
2018-11-04T06:37:42.235Z,1013.37
2018-11-04T06:38:42.209Z,1013.34
2018-11-04T06:39:42.182Z,1013.36
2018-11-04T06:40:42.181Z,1013.37
2018-11-04T06:41:42.138Z,1013.37
2018-11-04T06:42:42.111Z,1013.40
2018-11-04T06:43:42.089Z,1013.38
2018-11-04T06:44:42.056Z,1013.41
2018-11-04T06:45:42.028Z,1013.43
2018-11-04T06:46:42.004Z,1013.44
2018-11-04T06:47:42.029Z,1013.37
2018-11-04T06:48:41.954Z,1013.38
2018-11-04T06:49:41.936Z,1013.43
2018-11-04T06:50:41.906Z,1013.45
2018-11-04T06:51:41.874Z,1013.47
2018-11-04T06:52:41.852Z,1013.52
2018-11-04T06:53:41.822Z,1013.53
2018-11-04T06:54:41.798Z,1013.52
2018-11-04T06:55:41.785Z,1013.50
2018-11-04T06:56:41.752Z,1013.48
2018-11-04T06:57:41.723Z,1013.48
2018-11-04T06:58:41.698Z,1013.54
2018-11-04T06:59:41.680Z,1013.45
2018-11-04T07:00:41.649Z,1013.45
2018-11-04T07:01:41.628Z,1013.48
2018-11-04T07:02:41.593Z,1013.49
2018-11-04T07:03:41.571Z,1013.48
2018-11-04T07:04:41.550Z,1013.46
2018-11-04T07:05:41.521Z,1013.43
2018-11-04T07:06:41.492Z,1013.54
2018-11-04T07:07:41.471Z,1013.48
2018-11-04T07:08:41.451Z,1013.48
2018-11-04T07:09:41.416Z,1013.46
2018-11-04T07:10:41.393Z,1013.45
2018-11-04T07:11:41.367Z,1013.47
2018-11-04T07:12:41.343Z,1013.43
2018-11-04T07:13:41.315Z,1013.40
2018-11-04T07:14:41.296Z,1013.43
2018-11-04T07:15:41.268Z,1013.39
2018-11-04T07:16:41.239Z,1013.38
2018-11-04T07:17:41.217Z,1013.36
2018-11-04T07:18:41.190Z,1013.32
2018-11-04T07:19:41.173Z,1013.34
2018-11-04T07:20:41.140Z,1013.34
2018-11-04T07:21:41.114Z,1013.32
2018-11-04T07:22:41.201Z,1013.34
2018-11-04T07:23:41.066Z,1013.32
2018-11-04T07:24:41.043Z,1013.36
2018-11-04T07:25:41.115Z,1013.38
2018-11-04T07:26:40.988Z,1013.46
2018-11-04T07:27:40.965Z,1013.47
2018-11-04T07:28:40.942Z,1013.44
2018-11-04T07:29:40.919Z,1013.43
2018-11-04T07:30:40.890Z,1013.42
2018-11-04T07:31:40.865Z,1013.40
2018-11-04T07:32:40.840Z,1013.42
2018-11-04T07:33:40.815Z,1013.39
2018-11-04T07:34:40.792Z,1013.42
2018-11-04T07:35:40.767Z,1013.41
2018-11-04T07:36:40.740Z,1013.35
2018-11-04T07:37:40.718Z,1013.39
2018-11-04T07:38:40.690Z,1013.38
2018-11-04T07:39:40.673Z,1013.46
2018-11-04T07:40:40.640Z,1013.43
2018-11-04T07:41:40.616Z,1013.42
2018-11-04T07:42:40.594Z,1013.44
2018-11-04T07:43:40.567Z,1013.44
2018-11-04T07:44:40.541Z,1013.39
2018-11-04T07:45:40.515Z,1013.41
2018-11-04T07:46:40.492Z,1013.40
2018-11-04T07:47:40.587Z,1013.35
2018-11-04T07:48:40.444Z,1013.36
2018-11-04T07:49:40.425Z,1013.39
2018-11-04T07:50:40.554Z,1013.36
2018-11-04T07:51:40.450Z,1013.36
2018-11-04T07:52:40.393Z,1013.35
2018-11-04T07:53:40.352Z,1013.34
2018-11-04T07:54:40.304Z,1013.42
2018-11-04T07:55:40.277Z,1013.40
2018-11-04T07:56:40.269Z,1013.41
2018-11-04T07:57:40.222Z,1013.32
2018-11-04T07:58:40.206Z,1013.32
2018-11-04T07:59:40.173Z,1013.30
2018-11-04T08:00:40.202Z,1013.30
2018-11-04T08:01:40.272Z,1013.29
2018-11-04T08:02:40.101Z,1013.27
2018-11-04T08:03:40.083Z,1013.30
2018-11-04T08:04:40.069Z,1013.29
2018-11-04T08:05:40.029Z,1013.25
2018-11-04T08:06:40.012Z,1013.25
2018-11-04T08:07:39.973Z,1013.22
2018-11-04T08:08:39.948Z,1013.23
2018-11-04T08:09:39.944Z,1013.26
2018-11-04T08:10:39.898Z,1013.20
2018-11-04T08:11:39.928Z,1013.21
2018-11-04T08:12:39.856Z,1013.20
2018-11-04T08:13:40.027Z,1013.19
2018-11-04T08:14:39.815Z,1013.15
2018-11-04T08:15:39.784Z,1013.15
2018-11-04T08:16:39.770Z,1013.17
2018-11-04T08:17:39.726Z,1013.18
2018-11-04T08:18:39.702Z,1013.15
2018-11-04T08:19:39.681Z,1013.12
2018-11-04T08:20:39.655Z,1013.08
2018-11-04T08:21:39.633Z,1013.08
2018-11-04T08:22:39.604Z,1013.08
2018-11-04T08:23:39.585Z,1013.10
2018-11-04T08:24:39.569Z,1013.13
2018-11-04T08:25:39.531Z,1013.11
2018-11-04T08:26:39.572Z,1013.09
2018-11-04T08:27:39.487Z,1013.07
2018-11-04T08:28:39.463Z,1013.08
2018-11-04T08:29:39.447Z,1013.06
2018-11-04T08:30:39.422Z,1013.03
2018-11-04T08:31:39.386Z,1013.07
2018-11-04T08:32:39.361Z,1013.09
2018-11-04T08:33:39.339Z,1013.11
2018-11-04T08:34:39.315Z,1013.09
2018-11-04T08:35:39.292Z,1013.04
2018-11-04T08:36:39.267Z,1013.01
2018-11-04T08:37:39.249Z,1013.00
2018-11-04T08:38:39.221Z,1013.00
2018-11-04T08:39:39.261Z,1012.99
2018-11-04T08:40:39.172Z,1012.95
2018-11-04T08:41:39.145Z,1012.93
2018-11-04T08:42:39.119Z,1012.91
2018-11-04T08:43:39.094Z,1012.90
2018-11-04T08:44:39.070Z,1012.89
2018-11-04T08:45:39.050Z,1012.86
2018-11-04T08:46:39.023Z,1012.87
2018-11-04T08:47:39.000Z,1012.88
2018-11-04T08:48:38.980Z,1012.90
2018-11-04T08:49:38.961Z,1012.90
2018-11-04T08:50:38.928Z,1012.91
2018-11-04T08:51:38.915Z,1012.96
2018-11-04T08:52:38.959Z,1012.98
2018-11-04T08:53:38.859Z,1012.92
2018-11-04T08:54:38.838Z,1012.92
2018-11-04T08:55:38.810Z,1012.92
2018-11-04T08:56:38.792Z,1012.91
2018-11-04T08:57:38.762Z,1012.88
2018-11-04T08:58:38.757Z,1012.86
2018-11-04T08:59:38.783Z,1012.87
2018-11-04T09:00:38.698Z,1012.88
2018-11-04T09:01:38.669Z,1012.86
2018-11-04T09:02:38.650Z,1012.82
2018-11-04T09:03:38.620Z,1012.80
2018-11-04T09:04:38.598Z,1012.81
2018-11-04T09:05:38.571Z,1012.82
2018-11-04T09:06:38.600Z,1012.83
2018-11-04T09:07:38.523Z,1012.81
2018-11-04T09:08:38.503Z,1012.84
2018-11-04T09:09:38.479Z,1012.80
2018-11-04T09:10:38.453Z,1012.82
2018-11-04T09:11:38.432Z,1012.75
2018-11-04T09:12:38.415Z,1012.74
2018-11-04T09:13:38.398Z,1012.76
2018-11-04T09:14:38.363Z,1012.78
2018-11-04T09:15:38.348Z,1012.76
2018-11-04T09:16:38.317Z,1012.74
2018-11-04T09:17:38.293Z,1012.72
2018-11-04T09:18:38.272Z,1012.74
2018-11-04T09:19:38.254Z,1012.73
2018-11-04T09:20:38.223Z,1012.65
2018-11-04T09:21:38.335Z,1012.64
2018-11-04T09:22:38.255Z,1012.63
2018-11-04T09:23:38.232Z,1012.64
2018-11-04T09:24:38.288Z,1012.64
2018-11-04T09:25:38.107Z,1012.63
2018-11-04T09:26:38.082Z,1012.61
2018-11-04T09:27:38.092Z,1012.62
2018-11-04T09:28:38.056Z,1012.64
2018-11-04T09:29:38.015Z,1012.67
2018-11-04T09:30:38.000Z,1012.63
2018-11-04T09:31:37.976Z,1012.63
2018-11-04T09:32:37.946Z,1012.65
2018-11-04T09:33:37.930Z,1012.66
2018-11-04T09:34:37.981Z,1012.65
2018-11-04T09:35:38.045Z,1012.62
2018-11-04T09:36:38.051Z,1012.59
2018-11-04T09:37:37.835Z,1012.61
2018-11-04T09:38:37.817Z,1012.56
2018-11-04T09:39:37.791Z,1012.56
2018-11-04T09:40:37.764Z,1012.62
2018-11-04T09:41:37.740Z,1012.60
2018-11-04T09:42:37.729Z,1012.57
2018-11-04T09:43:37.696Z,1012.61
2018-11-04T09:44:37.677Z,1012.61
2018-11-04T09:45:37.658Z,1012.64
2018-11-04T09:46:37.627Z,1012.58
2018-11-04T09:47:37.607Z,1012.59
2018-11-04T09:48:37.581Z,1012.61
2018-11-04T09:49:37.566Z,1012.60
2018-11-04T09:50:37.545Z,1012.59
2018-11-04T09:51:37.524Z,1012.60
2018-11-04T09:52:37.512Z,1012.56
2018-11-04T09:53:37.470Z,1012.55
2018-11-04T09:54:37.570Z,1012.59
2018-11-04T09:55:37.428Z,1012.57
2018-11-04T09:56:37.526Z,1012.59
2018-11-04T09:57:37.479Z,1012.57
2018-11-04T09:58:37.362Z,1012.59
2018-11-04T09:59:37.340Z,1012.60
2018-11-04T10:00:37.342Z,1012.62
2018-11-04T10:01:37.306Z,1012.57
2018-11-04T10:02:37.272Z,1012.59
2018-11-04T10:03:37.257Z,1012.61
2018-11-04T10:04:37.225Z,1012.63
2018-11-04T10:05:37.202Z,1012.61
2018-11-04T10:06:37.192Z,1012.62
2018-11-04T10:07:37.163Z,1012.59
2018-11-04T10:08:37.143Z,1012.59
2018-11-04T10:09:37.114Z,1012.56
2018-11-04T10:10:37.096Z,1012.52
2018-11-04T10:11:37.068Z,1012.53
2018-11-04T10:12:37.054Z,1012.55
2018-11-04T10:13:37.027Z,1012.55
2018-11-04T10:14:37.010Z,1012.59
2018-11-04T10:15:36.994Z,1012.54
2018-11-04T10:16:37.031Z,1012.51
2018-11-04T10:17:36.942Z,1012.52
2018-11-04T10:18:36.933Z,1012.53
2018-11-04T10:19:37.021Z,1012.55
2018-11-04T10:20:37.364Z,1012.59
2018-11-04T10:21:36.853Z,1012.57
2018-11-04T10:22:36.879Z,1012.59
2018-11-04T10:23:36.816Z,1012.63
2018-11-04T10:24:36.988Z,1012.63
2018-11-04T10:25:36.763Z,1012.63
2018-11-04T10:26:36.750Z,1012.59
2018-11-04T10:27:36.881Z,1012.57
2018-11-04T10:28:36.700Z,1012.54
2018-11-04T10:29:36.678Z,1012.51
2018-11-04T10:30:36.692Z,1012.49
2018-11-04T10:31:36.650Z,1012.50
2018-11-04T10:32:36.613Z,1012.54
2018-11-04T10:33:36.664Z,1012.45
2018-11-04T10:34:36.567Z,1012.46
2018-11-04T10:35:36.552Z,1012.44
2018-11-04T10:36:36.526Z,1012.46
2018-11-04T10:37:36.511Z,1012.43
2018-11-04T10:38:36.483Z,1012.42
2018-11-04T10:39:36.457Z,1012.45
2018-11-04T10:40:36.445Z,1012.40
2018-11-04T10:41:36.419Z,1012.39
2018-11-04T10:42:36.392Z,1012.36
2018-11-04T10:43:36.371Z,1012.32
2018-11-04T10:44:36.350Z,1012.33
2018-11-04T10:45:36.330Z,1012.29
2018-11-04T10:46:36.313Z,1012.30
2018-11-04T10:47:36.291Z,1012.28
2018-11-04T10:48:36.263Z,1012.30
2018-11-04T10:49:36.304Z,1012.32
2018-11-04T10:50:36.230Z,1012.24
2018-11-04T10:51:36.202Z,1012.30
2018-11-04T10:52:36.264Z,1012.29
2018-11-04T10:53:36.160Z,1012.26
2018-11-04T10:54:36.134Z,1012.27
2018-11-04T10:55:36.232Z,1012.25
2018-11-04T10:56:36.100Z,1012.24
2018-11-04T10:57:36.084Z,1012.20
2018-11-04T10:58:36.071Z,1012.20
2018-11-04T10:59:36.039Z,1012.20
2018-11-04T11:00:36.018Z,1012.20
2018-11-04T11:01:35.990Z,1012.18
2018-11-04T11:02:35.964Z,1012.16
2018-11-04T11:03:35.942Z,1012.13
2018-11-04T11:04:36.021Z,1012.09
2018-11-04T11:05:35.920Z,1012.07
2018-11-04T11:06:35.914Z,1012.00
2018-11-04T11:07:35.859Z,1011.99
2018-11-04T11:08:35.844Z,1011.96
2018-11-04T11:09:35.820Z,1011.94
2018-11-04T11:10:35.794Z,1011.91
2018-11-04T11:11:35.775Z,1011.90
2018-11-04T11:12:35.752Z,1011.91
2018-11-04T11:13:35.733Z,1011.90
2018-11-04T11:14:35.719Z,1011.86
2018-11-04T11:15:35.692Z,1011.87
2018-11-04T11:16:35.681Z,1011.83
2018-11-04T11:17:35.651Z,1011.84
2018-11-04T11:18:35.645Z,1011.86
2018-11-04T11:19:35.604Z,1011.84
2018-11-04T11:20:35.589Z,1011.79
2018-11-04T11:21:35.572Z,1011.81
2018-11-04T11:22:35.654Z,1011.80
2018-11-04T11:23:35.522Z,1011.81
2018-11-04T11:24:35.508Z,1011.76
2018-11-04T11:25:35.485Z,1011.74
2018-11-04T11:26:35.467Z,1011.70
2018-11-04T11:27:35.440Z,1011.70
2018-11-04T11:28:35.454Z,1011.76
2018-11-04T11:29:35.401Z,1011.73
2018-11-04T11:30:35.381Z,1011.69
2018-11-04T11:31:35.352Z,1011.68
2018-11-04T11:32:35.335Z,1011.69
2018-11-04T11:33:35.309Z,1011.67
2018-11-04T11:34:35.299Z,1011.68
2018-11-04T11:35:35.278Z,1011.67
2018-11-04T11:36:35.255Z,1011.65
2018-11-04T11:37:35.414Z,1011.64
2018-11-04T11:38:35.204Z,1011.64
2018-11-04T11:39:35.190Z,1011.61
2018-11-04T11:40:35.162Z,1011.55
2018-11-04T11:41:35.151Z,1011.53
2018-11-04T11:42:35.128Z,1011.52
2018-11-04T11:43:35.110Z,1011.50
2018-11-04T11:44:35.287Z,1011.47
2018-11-04T11:45:35.068Z,1011.48
2018-11-04T11:46:35.037Z,1011.43
2018-11-04T11:47:35.023Z,1011.46
2018-11-04T11:48:34.997Z,1011.41
2018-11-04T11:49:34.982Z,1011.41
2018-11-04T11:50:35.009Z,1011.40
2018-11-04T11:51:34.941Z,1011.37
2018-11-04T11:52:34.981Z,1011.42
2018-11-04T11:53:34.898Z,1011.34
2018-11-04T11:54:34.870Z,1011.34
2018-11-04T11:55:34.853Z,1011.36
2018-11-04T11:56:34.827Z,1011.34
2018-11-04T11:57:34.807Z,1011.31
2018-11-04T11:58:34.794Z,1011.32
2018-11-04T11:59:34.761Z,1011.31
2018-11-04T12:00:34.753Z,1011.27
2018-11-04T12:01:34.738Z,1011.25
2018-11-04T12:02:34.704Z,1011.25
2018-11-04T12:03:34.686Z,1011.25
2018-11-04T12:04:34.657Z,1011.23
2018-11-04T12:05:34.650Z,1011.20
2018-11-04T12:06:34.618Z,1011.21